createdAt,value
2023-11-19T00:02:13.587Z,11.68
2023-11-19T00:04:40.693Z,10.18
2023-11-19T00:07:07.606Z,11.23
2023-11-19T00:09:34.432Z,10.05
2023-11-19T00:12:01.378Z,9.18
2023-11-19T00:14:28.189Z,9.52
2023-11-19T00:16:54.995Z,7.55
2023-11-19T00:19:23.387Z,8.10
2023-11-19T00:21:50.171Z,8.80
2023-11-19T00:24:17.083Z,8.02
2023-11-19T00:26:44.177Z,8.45
2023-11-19T00:29:11.009Z,7.28
2023-11-19T00:31:37.956Z,7.43
2023-11-19T00:34:04.894Z,7.07
2023-11-19T00:36:33.178Z,6.47
2023-11-19T00:38:59.943Z,7.28
2023-11-19T00:41:26.778Z,6.55
2023-11-19T00:43:53.661Z,6.07
2023-11-19T00:46:22.576Z,6.70
2023-11-19T00:48:49.453Z,6.68
2023-11-19T00:51:16.243Z,4.28
2023-11-19T00:53:44.626Z,5.32
2023-11-19T00:56:12.296Z,4.95
2023-11-19T00:58:39.042Z,5.10
2023-11-19T01:01:06.684Z,4.57
2023-11-19T01:03:33.595Z,4.63
2023-11-19T01:06:00.483Z,3.85
2023-11-19T01:08:27.213Z,5.28
2023-11-19T01:10:55.425Z,4.15
2023-11-19T01:13:22.271Z,4.55
2023-11-19T01:15:49.159Z,4.28
2023-11-19T01:18:16.007Z,4.32
2023-11-19T01:20:43.137Z,4.20
2023-11-19T01:23:09.906Z,4.35
2023-11-19T01:25:36.709Z,3.70
2023-11-19T01:28:05.332Z,3.15
2023-11-19T01:30:32.185Z,3.80
2023-11-19T01:32:58.991Z,2.78
2023-11-19T01:35:28.225Z,3.97
2023-11-19T01:37:55.126Z,4.13
2023-11-19T01:40:23.099Z,3.42
2023-11-19T01:42:49.979Z,3.80
2023-11-19T01:45:27.753Z,3.47
2023-11-19T01:47:54.734Z,3.42
2023-11-19T01:50:22.385Z,2.95
2023-11-19T01:52:49.778Z,3.97
2023-11-19T01:55:16.669Z,3.88
2023-11-19T01:57:43.499Z,3.17
2023-11-19T02:00:11.347Z,3.58
2023-11-19T02:02:39.823Z,3.53
2023-11-19T02:05:07.150Z,3.40
2023-11-19T02:07:34.148Z,3.13
2023-11-19T02:10:00.977Z,3.90
2023-11-19T02:12:27.966Z,3.35
2023-11-19T02:14:54.747Z,3.40
2023-11-19T02:17:28.147Z,3.15
2023-11-19T02:19:56.314Z,3.08
2023-11-19T02:22:23.295Z,3.50
2023-11-19T02:24:52.287Z,2.95
2023-11-19T02:29:52.981Z,2.65
2023-11-19T02:32:20.235Z,3.75
2023-11-19T02:34:47.025Z,4.50
2023-11-19T02:37:13.829Z,3.25
2023-11-19T02:39:40.716Z,2.40
2023-11-19T02:42:07.790Z,3.22
2023-11-19T02:44:37.384Z,3.15
2023-11-19T02:47:06.787Z,3.40
2023-11-19T02:49:33.539Z,4.25
2023-11-19T02:52:00.434Z,3.60
2023-11-19T02:54:27.264Z,3.08
2023-11-19T02:56:53.984Z,3.88
2023-11-19T02:59:20.841Z,3.90
2023-11-19T03:01:47.682Z,3.65
2023-11-19T03:04:15.972Z,3.67
2023-11-19T03:06:42.823Z,4.00
2023-11-19T03:09:09.598Z,4.53
2023-11-19T03:11:36.402Z,4.18
2023-11-19T03:14:04.547Z,5.72
2023-11-19T03:16:31.512Z,3.50
2023-11-19T03:18:59.373Z,4.45
2023-11-19T03:21:30.246Z,4.07
2023-11-19T03:23:56.986Z,3.85
2023-11-19T03:26:23.786Z,4.43
2023-11-19T03:28:50.590Z,4.88
2023-11-19T03:31:17.354Z,3.65
2023-11-19T03:33:44.183Z,3.33
2023-11-19T03:36:10.995Z,2.58
2023-11-19T03:38:41.624Z,3.53
2023-11-19T03:41:11.836Z,3.97
2023-11-19T03:43:38.578Z,3.75
2023-11-19T03:46:06.132Z,4.60
2023-11-19T03:48:33.642Z,4.35
2023-11-19T03:51:00.424Z,3.60
2023-11-19T03:53:27.149Z,4.63
2023-11-19T03:55:55.298Z,3.90
2023-11-19T03:58:22.144Z,3.40
2023-11-19T04:00:50.026Z,5.50
2023-11-19T04:03:16.770Z,3.50
2023-11-19T04:05:43.508Z,4.22
2023-11-19T04:08:10.302Z,4.25
2023-11-19T04:10:37.044Z,3.00
2023-11-19T04:13:05.264Z,4.20
2023-11-19T04:15:31.996Z,3.90
2023-11-19T04:17:58.807Z,2.75
2023-11-19T04:20:25.562Z,5.00
2023-11-19T04:22:52.334Z,3.08
2023-11-19T04:25:19.131Z,4.20
2023-11-19T04:27:46.041Z,3.67
2023-11-19T04:30:14.758Z,3.22
2023-11-19T04:32:41.608Z,4.15
2023-11-19T04:35:09.230Z,4.38
2023-11-19T04:37:36.142Z,4.93
2023-11-19T04:40:03.386Z,3.78
2023-11-19T04:42:30.262Z,5.10
2023-11-19T04:44:57.271Z,3.42
2023-11-19T04:47:25.572Z,4.00
2023-11-19T04:49:53.466Z,4.60
2023-11-19T04:52:20.225Z,3.45
2023-11-19T04:54:47.066Z,5.30
2023-11-19T04:57:14.069Z,4.05
2023-11-19T04:59:41.232Z,4.13
2023-11-19T05:02:09.106Z,3.58
2023-11-19T05:04:37.516Z,3.42
2023-11-19T05:07:04.711Z,5.03
2023-11-19T05:09:32.359Z,3.53
2023-11-19T05:11:59.148Z,4.10
2023-11-19T05:14:25.939Z,3.20
2023-11-19T05:16:52.893Z,4.38
2023-11-19T05:19:19.885Z,3.97
2023-11-19T05:21:48.045Z,3.63
2023-11-19T05:24:15.585Z,4.85
2023-11-19T05:26:42.798Z,2.75
2023-11-19T05:29:09.632Z,4.13
2023-11-19T05:31:37.327Z,4.57
2023-11-19T05:34:05.732Z,3.20
2023-11-19T05:36:33.064Z,3.80
2023-11-19T05:39:02.087Z,5.00
2023-11-19T05:41:29.044Z,3.70
2023-11-19T05:43:55.884Z,4.18
2023-11-19T05:46:22.918Z,4.18
2023-11-19T05:48:52.761Z,4.28
2023-11-19T05:51:19.660Z,3.22
2023-11-19T05:53:46.619Z,3.97
2023-11-19T05:56:14.829Z,3.67
2023-11-19T05:58:42.874Z,3.97
2023-11-19T06:01:09.997Z,3.55
2023-11-19T06:03:37.118Z,3.42
2023-11-19T06:06:04.157Z,4.22
2023-11-19T06:08:30.897Z,5.43
2023-11-19T06:10:57.755Z,5.25
2023-11-19T06:13:25.975Z,5.15
2023-11-19T06:15:52.950Z,5.47
2023-11-19T06:18:19.968Z,3.72
2023-11-19T06:20:46.790Z,4.78
2023-11-19T06:23:13.597Z,4.20
2023-11-19T06:25:40.367Z,3.80
2023-11-19T06:28:07.311Z,3.30
2023-11-19T06:30:35.429Z,3.63
2023-11-19T06:33:02.271Z,4.20
2023-11-19T06:35:29.303Z,4.00
2023-11-19T06:37:56.114Z,3.63
2023-11-19T06:40:22.935Z,4.85
2023-11-19T06:42:49.761Z,3.67
2023-11-19T06:45:16.646Z,3.95
2023-11-19T06:47:44.824Z,3.50
2023-11-19T06:50:12.005Z,4.05
2023-11-19T06:52:39.048Z,3.88
2023-11-19T06:55:08.427Z,3.63
2023-11-19T06:57:35.838Z,3.85
2023-11-19T07:00:02.981Z,4.38
2023-11-19T07:02:29.932Z,3.45
2023-11-19T07:04:58.244Z,3.90
2023-11-19T07:07:25.157Z,3.67
2023-11-19T07:09:51.919Z,3.97
2023-11-19T07:12:18.778Z,4.68
2023-11-19T07:14:45.522Z,4.55
2023-11-19T07:17:12.307Z,3.58
2023-11-19T07:19:39.193Z,4.18
2023-11-19T07:22:07.504Z,4.22
2023-11-19T07:24:34.355Z,3.53
2023-11-19T07:27:01.479Z,3.85
2023-11-19T07:29:30.133Z,4.30
2023-11-19T07:34:25.302Z,3.67
2023-11-19T07:36:52.180Z,3.40
2023-11-19T07:39:20.328Z,4.38
2023-11-19T07:41:48.137Z,3.70
2023-11-19T07:44:14.949Z,4.40
2023-11-19T07:46:41.787Z,3.78
2023-11-19T07:49:08.604Z,3.78
2023-11-19T07:51:35.355Z,4.50
2023-11-19T07:54:03.126Z,2.60
2023-11-19T07:56:31.457Z,3.75
2023-11-19T07:58:58.347Z,3.28
2023-11-19T08:01:25.185Z,3.88
2023-11-19T08:06:21.866Z,4.25
2023-11-19T08:08:48.648Z,4.35
2023-11-19T08:11:15.418Z,4.78
2023-11-19T08:13:43.808Z,3.42
2023-11-19T08:16:10.654Z,3.15
2023-11-19T08:18:37.599Z,3.25
2023-11-19T08:21:04.717Z,2.92
2023-11-19T08:23:31.624Z,3.85
2023-11-19T08:25:58.441Z,3.72
2023-11-19T08:28:25.203Z,3.40
2023-11-19T08:30:53.359Z,3.65
2023-11-19T08:33:20.201Z,4.20
2023-11-19T08:35:47.020Z,3.88
2023-11-19T08:38:13.866Z,3.67
2023-11-19T08:40:40.692Z,3.13
2023-11-19T08:43:07.514Z,3.20
2023-11-19T08:45:34.278Z,3.65
2023-11-19T08:48:02.469Z,4.07
2023-11-19T08:50:29.505Z,3.75
2023-11-19T08:52:56.434Z,4.00
2023-11-19T08:55:23.247Z,3.58
2023-11-19T08:57:50.080Z,3.80
2023-11-19T09:00:17.279Z,3.78
2023-11-19T09:05:12.295Z,3.70
2023-11-19T09:07:39.842Z,4.38
2023-11-19T09:10:07.580Z,2.35
2023-11-19T09:12:34.367Z,3.65
2023-11-19T09:15:01.240Z,4.57
2023-11-19T09:17:28.078Z,3.67
2023-11-19T09:19:55.112Z,3.10
2023-11-19T09:22:24.704Z,3.13
2023-11-19T09:24:51.512Z,4.10
2023-11-19T09:27:18.348Z,3.45
2023-11-19T09:29:45.157Z,3.55
2023-11-19T09:32:12.101Z,3.00
2023-11-19T09:34:38.902Z,3.45
2023-11-19T09:37:21.688Z,2.95
2023-11-19T09:39:50.303Z,3.35
2023-11-19T09:42:17.205Z,2.90
2023-11-19T09:44:44.473Z,2.90
2023-11-19T09:47:12.475Z,3.90
2023-11-19T09:49:39.791Z,3.90
2023-11-19T09:52:06.818Z,3.83
2023-11-19T09:54:33.669Z,2.83
2023-11-19T09:57:03.206Z,3.58
2023-11-19T09:59:30.693Z,3.95
2023-11-19T10:01:57.580Z,3.10
2023-11-19T10:04:26.600Z,3.72
2023-11-19T10:06:53.586Z,2.83
2023-11-19T10:09:20.366Z,4.28
2023-11-19T10:11:47.473Z,3.60
2023-11-19T10:14:16.089Z,3.45
2023-11-19T10:16:44.539Z,3.58
2023-11-19T10:19:19.526Z,3.58
2023-11-19T10:21:47.561Z,3.35
2023-11-19T10:24:29.981Z,3.30
2023-11-19T10:26:58.541Z,3.45
2023-11-19T10:29:26.999Z,3.60
2023-11-19T10:31:57.313Z,3.20
2023-11-19T10:34:26.577Z,3.25
2023-11-19T10:36:53.656Z,4.30
2023-11-19T10:39:20.591Z,4.00
2023-11-19T10:41:47.409Z,3.60
2023-11-19T10:44:33.690Z,3.38
2023-11-19T10:47:00.616Z,3.78
2023-11-19T10:49:27.855Z,3.38
2023-11-19T10:51:56.949Z,2.60
2023-11-19T10:54:23.992Z,2.70
2023-11-19T10:56:57.676Z,3.13
2023-11-19T10:59:29.855Z,3.08
2023-11-19T11:02:07.877Z,3.03
2023-11-19T11:04:37.456Z,3.03
2023-11-19T11:07:04.866Z,3.05
2023-11-19T11:09:32.930Z,3.17
2023-11-19T11:12:00.830Z,2.90
2023-11-19T11:14:29.005Z,3.63
2023-11-19T11:17:01.268Z,3.17
2023-11-19T11:19:28.331Z,3.65
2023-11-19T11:21:56.845Z,3.47
2023-11-19T11:24:54.264Z,2.78
2023-11-19T11:27:51.135Z,3.55
2023-11-19T11:30:30.670Z,3.88
2023-11-19T11:33:12.452Z,3.90
2023-11-19T11:35:50.304Z,3.78
2023-11-19T11:38:22.795Z,2.55
2023-11-19T11:41:16.882Z,2.88
2023-11-19T11:43:47.714Z,3.53
2023-11-19T11:46:52.314Z,3.58
2023-11-19T11:49:26.612Z,3.63
2023-11-19T11:52:03.952Z,3.85
2023-11-19T11:54:31.095Z,3.13
2023-11-19T11:59:49.956Z,2.50
2023-11-19T12:02:20.072Z,2.70
2023-11-19T12:04:52.920Z,2.60
2023-11-19T12:07:22.398Z,2.60
2023-11-19T12:09:53.514Z,3.15
2023-11-19T12:12:27.132Z,4.03
2023-11-19T12:15:05.087Z,2.53
2023-11-19T12:17:54.431Z,2.60
2023-11-19T12:22:54.770Z,1.92
2023-11-19T12:25:21.850Z,2.50
2023-11-19T12:27:50.576Z,2.10
2023-11-19T12:30:23.427Z,3.17
2023-11-19T12:32:50.582Z,2.10
2023-11-19T12:35:17.603Z,2.50
2023-11-19T12:37:46.961Z,2.83
2023-11-19T12:40:15.765Z,2.35
2023-11-19T12:45:09.938Z,2.50
2023-11-19T12:47:36.755Z,2.58
2023-11-19T12:50:03.728Z,2.80
2023-11-19T12:52:30.613Z,3.30
2023-11-19T12:54:58.695Z,3.83
2023-11-19T12:57:40.373Z,2.80
2023-11-19T13:00:08.686Z,2.75
2023-11-19T13:02:48.712Z,3.28
2023-11-19T13:05:36.683Z,2.75
2023-11-19T13:08:05.250Z,3.17
2023-11-19T13:10:34.326Z,2.65
2023-11-19T13:13:05.621Z,2.28
2023-11-19T13:15:32.844Z,3.08
2023-11-19T13:17:59.760Z,2.47
2023-11-19T13:20:26.581Z,3.40
2023-11-19T13:23:00.430Z,3.17
2023-11-19T13:25:27.643Z,2.65
2023-11-19T13:27:55.987Z,2.47
2023-11-19T13:32:53.966Z,3.35
2023-11-19T13:35:20.891Z,2.92
2023-11-19T13:37:47.705Z,3.15
2023-11-19T13:40:14.938Z,3.92
2023-11-19T13:42:44.686Z,3.58
2023-11-19T13:45:14.192Z,3.33
2023-11-19T13:47:42.701Z,2.88
2023-11-19T13:50:10.873Z,3.63
2023-11-19T13:52:40.759Z,4.43
2023-11-19T13:55:09.829Z,2.95
2023-11-19T13:57:36.893Z,2.65
2023-11-19T14:00:04.368Z,3.33
2023-11-19T14:02:32.540Z,3.35
2023-11-19T14:04:59.392Z,3.08
2023-11-19T14:07:26.232Z,3.13
2023-11-19T14:09:53.055Z,2.97
2023-11-19T14:12:19.942Z,3.13
2023-11-19T14:14:46.683Z,3.70
2023-11-19T14:17:14.266Z,2.67
2023-11-19T14:19:43.269Z,3.58
2023-11-19T14:22:10.058Z,3.38
2023-11-19T14:24:37.076Z,2.97
2023-11-19T14:27:04.241Z,2.70
2023-11-19T14:29:31.019Z,2.60
2023-11-19T14:31:58.211Z,2.33
2023-11-19T14:34:24.983Z,3.42
2023-11-19T14:36:53.279Z,3.17
2023-11-19T14:39:20.047Z,2.67
2023-11-19T14:41:46.842Z,3.00
2023-11-19T14:44:13.668Z,2.50
2023-11-19T14:46:40.808Z,2.70
2023-11-19T14:49:07.679Z,2.40
2023-11-19T14:51:37.080Z,2.60
2023-11-19T14:54:05.627Z,2.90
2023-11-19T14:56:32.997Z,2.78
2023-11-19T14:59:00.005Z,2.50
2023-11-19T15:01:26.916Z,2.78
2023-11-19T15:03:55.132Z,2.72
2023-11-19T15:06:24.842Z,2.72
2023-11-19T15:08:51.628Z,1.90
2023-11-19T15:11:19.754Z,2.78
2023-11-19T15:13:46.559Z,3.00
2023-11-19T15:16:15.748Z,3.42
2023-11-19T15:18:42.640Z,3.10
2023-11-19T15:21:09.434Z,3.30
2023-11-19T15:23:36.279Z,3.08
2023-11-19T15:26:03.069Z,2.38
2023-11-19T15:28:31.276Z,3.42
2023-11-19T15:30:58.051Z,3.90
2023-11-19T15:33:24.834Z,3.15
2023-11-19T15:35:51.967Z,3.78
2023-11-19T15:38:18.905Z,2.67
2023-11-19T15:40:45.689Z,2.67
2023-11-19T15:43:12.654Z,2.92
2023-11-19T15:45:40.880Z,2.97
2023-11-19T15:48:10.578Z,2.63
2023-11-19T15:50:37.428Z,2.97
2023-11-19T15:53:04.260Z,3.85
2023-11-19T15:55:31.110Z,4.50
2023-11-19T15:57:57.919Z,3.10
2023-11-19T16:00:24.702Z,4.10
2023-11-19T16:02:52.955Z,2.88
2023-11-19T16:05:19.956Z,3.08
2023-11-19T16:07:46.780Z,3.42
2023-11-19T16:10:13.517Z,3.33
2023-11-19T16:12:40.751Z,3.25
2023-11-19T16:15:08.588Z,3.05
2023-11-19T16:17:35.556Z,2.25
2023-11-19T16:20:04.543Z,2.13
2023-11-19T16:24:58.213Z,2.40
2023-11-19T16:29:55.450Z,2.65
2023-11-19T16:32:22.625Z,2.58
2023-11-19T16:34:49.417Z,2.83
2023-11-19T16:37:17.563Z,3.03
2023-11-19T16:39:45.878Z,2.67
2023-11-19T16:42:12.909Z,2.47
2023-11-19T16:44:39.798Z,2.15
2023-11-19T16:47:06.913Z,2.80
2023-11-19T16:49:34.022Z,2.65
2023-11-19T16:52:02.167Z,2.85
2023-11-19T16:54:32.802Z,2.60
2023-11-19T16:56:59.759Z,3.42
2023-11-19T16:59:26.599Z,2.85
2023-11-19T17:01:53.514Z,2.75
2023-11-19T17:04:20.403Z,3.45
2023-11-19T17:06:47.251Z,3.17
2023-11-19T17:09:14.493Z,2.90
2023-11-19T17:11:42.673Z,2.58
2023-11-19T17:14:09.603Z,2.95
2023-11-19T17:16:36.490Z,2.80
2023-11-19T17:19:03.454Z,2.65
2023-11-19T17:21:30.336Z,3.05
2023-11-19T17:23:57.095Z,2.88
2023-11-19T17:26:23.986Z,2.60
2023-11-19T17:28:52.393Z,3.45
2023-11-19T17:31:19.192Z,2.58
2023-11-19T17:33:45.971Z,1.67
2023-11-19T17:36:12.872Z,2.90
2023-11-19T17:38:39.819Z,2.63
2023-11-19T17:41:06.716Z,2.67
2023-11-19T17:43:33.546Z,3.10
2023-11-19T17:46:01.982Z,2.50
2023-11-19T17:48:29.003Z,2.75
2023-11-19T17:50:55.923Z,4.07
2023-11-19T17:53:22.742Z,3.45
2023-11-19T17:55:49.587Z,3.35
2023-11-19T17:58:17.897Z,3.90
2023-11-19T18:00:44.781Z,3.42
2023-11-19T18:03:13.117Z,2.83
2023-11-19T18:05:40.139Z,3.28
2023-11-19T18:08:07.117Z,3.20
2023-11-19T18:10:33.918Z,3.00
2023-11-19T18:13:00.730Z,4.15
2023-11-19T18:15:27.492Z,4.07
2023-11-19T18:17:54.438Z,4.38
2023-11-19T18:20:22.692Z,3.60
2023-11-19T18:22:49.622Z,4.57
2023-11-19T18:25:17.629Z,3.60
2023-11-19T18:27:44.576Z,3.90
2023-11-19T18:30:12.664Z,4.03
2023-11-19T18:32:40.118Z,3.97
2023-11-19T18:35:08.334Z,4.80
2023-11-19T18:37:36.575Z,4.45
2023-11-19T18:40:03.922Z,3.92
2023-11-19T18:42:30.734Z,4.88
2023-11-19T18:44:57.555Z,4.55
2023-11-19T18:47:24.349Z,4.30
2023-11-19T18:49:51.144Z,4.13
2023-11-19T18:52:18.013Z,4.97
2023-11-19T18:54:46.138Z,3.75
2023-11-19T18:57:13.630Z,4.18
2023-11-19T18:59:40.466Z,3.83
2023-11-19T19:02:07.363Z,3.13
2023-11-19T19:04:34.324Z,3.50
2023-11-19T19:07:01.403Z,3.45
2023-11-19T19:09:28.230Z,3.88
2023-11-19T19:11:56.564Z,4.50
2023-11-19T19:14:23.445Z,3.97
2023-11-19T19:16:50.414Z,2.92
2023-11-19T19:19:17.246Z,4.28
2023-11-19T19:21:44.034Z,3.90
2023-11-19T19:24:10.996Z,4.18
2023-11-19T19:26:38.489Z,3.90
2023-11-19T19:29:06.795Z,4.28
2023-11-19T19:31:33.800Z,2.72
2023-11-19T19:34:00.662Z,5.10
2023-11-19T19:36:28.096Z,4.70
2023-11-19T19:38:55.005Z,4.75
2023-11-19T19:41:21.905Z,4.47
2023-11-19T19:43:48.740Z,4.05
2023-11-19T19:46:16.977Z,5.05
2023-11-19T19:48:43.738Z,4.50
2023-11-19T19:51:11.343Z,3.53
2023-11-19T19:53:38.294Z,4.97
2023-11-19T19:56:05.806Z,5.10
2023-11-19T19:58:32.732Z,5.55
2023-11-19T20:00:59.679Z,4.97
2023-11-19T20:03:27.878Z,6.05
2023-11-19T20:05:57.200Z,5.47
2023-11-19T20:08:23.971Z,4.20
2023-11-19T20:10:50.781Z,4.93
2023-11-19T20:13:17.628Z,4.95
2023-11-19T20:15:44.681Z,5.10
2023-11-19T20:18:11.672Z,4.88
2023-11-19T20:20:39.905Z,5.03
2023-11-19T20:23:06.675Z,4.78
2023-11-19T20:25:33.457Z,3.78
2023-11-19T20:28:00.283Z,4.22
2023-11-19T20:30:27.159Z,4.90
2023-11-19T20:32:54.275Z,2.97
2023-11-19T20:35:21.066Z,4.95
2023-11-19T20:37:49.148Z,4.10
2023-11-19T20:40:15.914Z,3.70
2023-11-19T20:42:42.682Z,3.78
2023-11-19T20:45:12.248Z,4.28
2023-11-19T20:47:39.689Z,4.50
2023-11-19T20:50:07.523Z,4.40
2023-11-19T20:52:34.337Z,3.33
2023-11-19T20:55:02.781Z,4.60
2023-11-19T20:57:29.607Z,4.68
2023-11-19T20:59:56.337Z,5.80
2023-11-19T21:02:23.174Z,5.13
2023-11-19T21:04:50.001Z,4.43
2023-11-19T21:07:17.088Z,5.07
2023-11-19T21:09:44.015Z,3.65
2023-11-19T21:12:13.157Z,4.38
2023-11-19T21:14:39.969Z,4.50
2023-11-19T21:17:06.927Z,3.92
2023-11-19T21:22:03.616Z,3.63
2023-11-19T21:24:30.411Z,5.10
2023-11-19T21:26:57.205Z,3.88
2023-11-19T21:29:25.336Z,3.83
2023-11-19T21:34:21.832Z,3.55
2023-11-19T21:36:48.674Z,3.67
2023-11-19T21:39:15.467Z,3.78
2023-11-19T21:41:43.404Z,3.70
2023-11-19T21:44:10.200Z,4.53
2023-11-19T21:46:38.289Z,4.22
2023-11-19T21:49:05.138Z,3.10
2023-11-19T21:51:32.027Z,3.08
2023-11-19T21:53:58.848Z,2.33
2023-11-19T21:56:25.631Z,2.60
2023-11-19T21:58:52.446Z,2.72
2023-11-19T22:01:19.354Z,2.25
2023-11-19T22:03:48.816Z,2.28
2023-11-19T22:06:17.645Z,2.40
2023-11-19T22:08:44.463Z,3.05
2023-11-19T22:11:11.303Z,2.47
2023-11-19T22:13:38.246Z,3.25
2023-11-19T22:16:05.500Z,2.35
2023-11-19T22:18:32.364Z,3.08
2023-11-19T22:21:01.587Z,2.92
2023-11-19T22:23:28.396Z,3.38
2023-11-19T22:25:55.232Z,2.70
2023-11-19T22:28:22.048Z,3.42
2023-11-19T22:30:48.954Z,3.42
2023-11-19T22:33:15.789Z,3.67
2023-11-19T22:35:42.801Z,3.00
2023-11-19T22:38:10.924Z,2.75
2023-11-19T22:40:37.710Z,3.40
2023-11-19T22:43:04.484Z,3.72
2023-11-19T22:45:31.283Z,2.85
2023-11-19T22:47:58.098Z,3.67
2023-11-19T22:50:24.853Z,2.95
2023-11-19T22:52:51.661Z,4.20
2023-11-19T22:55:19.887Z,4.50
2023-11-19T23:00:17.507Z,3.42
2023-11-19T23:02:44.377Z,2.85
2023-11-19T23:05:11.615Z,3.50
2023-11-19T23:07:38.555Z,2.28
2023-11-19T23:12:37.094Z,3.17
2023-11-19T23:15:04.647Z,2.75
2023-11-19T23:17:31.543Z,2.50
2023-11-19T23:20:07.740Z,3.35
2023-11-19T23:22:36.594Z,2.78
2023-11-19T23:25:03.435Z,1.90
2023-11-19T23:27:30.269Z,2.35
2023-11-19T23:29:58.524Z,3.38
2023-11-19T23:32:25.394Z,2.90
2023-11-19T23:34:52.317Z,3.10
2023-11-19T23:37:19.153Z,2.78
2023-11-19T23:39:45.987Z,2.65
2023-11-19T23:42:12.869Z,2.92
2023-11-19T23:44:39.651Z,2.67
2023-11-19T23:47:07.799Z,2.75
2023-11-19T23:49:34.681Z,3.03
2023-11-19T23:52:01.490Z,3.20
2023-11-19T23:54:28.303Z,3.67
2023-11-19T23:56:55.043Z,3.10
2023-11-19T23:59:21.843Z,3.20
